Language: 


Des rapports , des résumés tant et plus, au choix de chacun....


Données statistiques de la station
Quotidien Rapport Janvier 30, 2018 Unités:  Métrique    Anglais   les deux
« Précédent Jour
Suivant Jour »
Quotidien Hebdomadaire Mensuel Annuel Actuel
  Haut: Bas: Moyen:
Température: -17.8 °C -17.7 °C -14.6 °C
Pt de rosée: -17.8 °C -17.8 °C -14.9 °C
Humidité: Humidity % 78 % 94 %
Vitesse du vent: 0 km/h 0 km/h 2.4 km/h
Rafales: 0 km/h - -
Vent:- - SSW
Pression: 0 hPa 34476.3 hPa -
Précipitation: 7.62 mm    
Historical Graphs
 
 
Données statistiques pour Janvier 30, 2018
Heure Température Point de rosée Pression Vent Vitesse du vent Refales Humidité Pluie (taux horaire)
-17.8 °C -17.8 °C 0 hPa Calm     Humidity % 0 mm
00:03 -15.4 °C -15.6 °C 34875.8 hPa Calm   3.4 km/h 97 % 0 mm
00:08 -15.2 °C -15 °C 34875.8 hPa Calm   8.9 km/h 98 % 0 mm
00:13 -15.1 °C -15 °C 34875.8 hPa Calm   8.9 km/h 98 % 0 mm
00:18 -15.1 °C -15 °C 34875.8 hPa Calm   5.6 km/h 98 % 0 mm
00:23 -15.1 °C -15 °C 34875.8 hPa Calm   4.2 km/h 98 % 0 mm
00:28 -15.2 °C -15 °C 34875.8 hPa Calm   2.9 km/h 98 % 0 mm
00:33 -15.2 °C -15 °C 34875.8 hPa Calm     98 % 0 mm
00:38 -15.2 °C -15 °C 34875.8 hPa Calm     98 % 0 mm
00:43 -15.3 °C -15.6 °C 34875.8 hPa Calm     98 % 0 mm
00:48 -15.5 °C -15.6 °C 34875.8 hPa Calm     98 % 0 mm
00:53 -15.6 °C -15.6 °C 34875.8 hPa Calm     98 % 0 mm
00:58 -15.6 °C -15.6 °C 34875.8 hPa Calm     98 % 0 mm
01:03 -15.6 °C -15.6 °C 34875.8 hPa Calm     98 % 0 mm
01:08 -15.6 °C -15.6 °C 34875.8 hPa Calm   5.6 km/h 98 % 0 mm
01:13 -15.6 °C -15.6 °C 34875.8 hPa Calm   6.9 km/h 98 % 0 mm
01:18 -15.6 °C -15.6 °C 34875.8 hPa Calm   6.9 km/h 98 % 0 mm
01:23 -15.6 °C -15.6 °C 34875.8 hPa WNW 3.4 km/h 3.4 km/h 98 % 0 mm
01:28 -15.5 °C -15.6 °C 34875.8 hPa Calm   7.6 km/h 98 % 0 mm
01:33 -15.6 °C -15.6 °C 34875.8 hPa Calm   7.6 km/h 98 % 0 mm
01:38 -15.7 °C -15.6 °C 34875.8 hPa Calm   2.9 km/h 98 % 0 mm
01:43 -15.8 °C -15.6 °C 34875.8 hPa Calm   2.3 km/h 98 % 0 mm
01:48 -15.9 °C -16.1 °C 34875.8 hPa Calm     98 % 0 mm
01:53 -15.9 °C -16.1 °C 34875.8 hPa Calm   9.8 km/h 98 % 0 mm
01:58 -15.9 °C -16.1 °C 34875.8 hPa Calm   9.8 km/h 98 % 0 mm
02:03 -15.9 °C -16.1 °C 34875.8 hPa Calm   9.8 km/h 98 % 0 mm
02:08 -15.9 °C -16.1 °C 34875.8 hPa Calm   7.6 km/h 98 % 0 mm
02:13 -16 °C -16.1 °C 34875.8 hPa Calm   2.3 km/h 98 % 0 mm
02:19 -15.9 °C -16.1 °C 34875.8 hPa Calm   6.9 km/h 98 % 0 mm
02:24 -15.9 °C -16.1 °C 34875.8 hPa Calm   8 km/h 98 % 0 mm
02:29 -15.9 °C -16.1 °C 34875.8 hPa Calm   9.3 km/h 98 % 0 mm
02:34 -15.9 °C -16.1 °C 34875.8 hPa Calm   9.3 km/h 98 % 0 mm
02:39 -16.1 °C -16.1 °C 34875.8 hPa Calm   5.1 km/h 98 % 0 mm
02:44 -16.2 °C -16.1 °C 34875.8 hPa Calm     98 % 0 mm
02:49 -16.3 °C -16.1 °C 34875.8 hPa Calm     98 % 0 mm
02:54 -16.3 °C -16.1 °C 34875.8 hPa Calm     98 % 0 mm
02:59 -16.3 °C -16.1 °C 34875.8 hPa Calm     98 % 0 mm
03:04 -16.2 °C -16.1 °C 34875.8 hPa Calm   8 km/h 98 % 0 mm
03:09 -16.3 °C -16.1 °C 34875.8 hPa West 5.6 km/h 11.1 km/h 98 % 0 mm
03:14 -16.3 °C -16.1 °C 34875.8 hPa NW 5.1 km/h 11.1 km/h 98 % 0 mm
03:15 -16.3 °C -16.1 °C 34875.8 hPa WNW 8 km/h 11.1 km/h 98 % 0 mm
03:20 -16.3 °C -16.1 °C 34875.8 hPa Calm   8.9 km/h 98 % 0 mm
03:25 -16.3 °C -16.1 °C 34875.8 hPa Calm   6.9 km/h 98 % 0 mm
03:30 -16.2 °C -16.1 °C 34875.8 hPa Calm     98 % 0 mm
03:35 -16.4 °C -16.1 °C 34875.8 hPa Calm     98 % 0 mm
03:40 -16.5 °C -16.1 °C 34875.8 hPa Calm     98 % 0 mm
03:45 -16.7 °C -16.7 °C 34875.8 hPa Calm     98 % 0 mm
03:50 -16.8 °C -16.7 °C 34875.8 hPa Calm     98 % 0 mm
03:55 -16.8 °C -16.7 °C 34875.8 hPa Calm     98 % 0 mm
04:01 -16.9 °C -16.7 °C 34841.9 hPa Calm   5.6 km/h 98 % 0 mm
04:06 -17 °C -17.2 °C 34841.9 hPa Calm   5.6 km/h 98 % 0 mm
04:11 -17.1 °C -17.2 °C 34841.9 hPa Calm     98 % 0 mm
04:16 -17.1 °C -17.2 °C 34841.9 hPa Calm     98 % 0 mm
04:21 -17.1 °C -17.2 °C 34841.9 hPa Calm     98 % 0 mm
04:26 -17 °C -17.2 °C 34841.9 hPa Calm     98 % 0 mm
04:31 -17 °C -17.2 °C 34841.9 hPa Calm     98 % 0 mm
04:36 -17.1 °C -17.2 °C 34841.9 hPa Calm     98 % 0 mm
04:41 -17.2 °C -17.2 °C 34841.9 hPa Calm     98 % 0 mm
04:46 -17.2 °C -17.2 °C 34875.8 hPa Calm     98 % 0 mm
04:51 -17.2 °C -17.2 °C 34875.8 hPa Calm     98 % 0 mm
04:56 -17.2 °C -17.2 °C 34875.8 hPa Calm   6.9 km/h 98 % 0 mm
05:01 -16.9 °C -16.7 °C 34841.9 hPa Calm   6.9 km/h 98 % 0 mm
05:06 -16.9 °C -16.7 °C 34841.9 hPa Calm     98 % 0 mm
05:11 -16.9 °C -16.7 °C 34841.9 hPa Calm     98 % 0 mm
05:16 -17 °C -17.2 °C 34841.9 hPa Calm     98 % 0 mm
05:21 -17.1 °C -17.2 °C 34841.9 hPa Calm     98 % 0 mm
05:26 -17.2 °C -17.2 °C 34841.9 hPa Calm     98 % 0 mm
05:31 -17.1 °C -17.2 °C 34841.9 hPa Calm     98 % 0 mm
05:36 -17.1 °C -17.2 °C 34841.9 hPa Calm     98 % 0 mm
05:41 -17.2 °C -17.2 °C 34841.9 hPa Calm     98 % 0 mm
05:46 -17.3 °C -17.2 °C 34841.9 hPa Calm     98 % 0 mm
05:51 -17.2 °C -17.2 °C 34841.9 hPa Calm   7.6 km/h 98 % 0 mm
05:56 -17.2 °C -17.2 °C 34841.9 hPa Calm   7.6 km/h 98 % 0 mm
06:01 -17.2 °C -17.2 °C 34841.9 hPa Calm     98 % 0 mm
06:06 -17.2 °C -17.2 °C 34841.9 hPa WNW 2.9 km/h 6.4 km/h 98 % 0 mm
06:11 -17.1 °C -17.2 °C 34841.9 hPa Calm   6.4 km/h 98 % 0 mm
06:16 -17 °C -17.2 °C 34841.9 hPa Calm   5.6 km/h 98 % 0 mm
06:21 -17 °C -17.2 °C 34841.9 hPa Calm   6.9 km/h 98 % 0 mm
06:27 -16.9 °C -16.7 °C 34841.9 hPa Calm   6.9 km/h 98 % 0 mm
06:32 -16.9 °C -16.7 °C 34875.8 hPa Calm   8 km/h 98 % 0 mm
06:37 -17.1 °C -17.2 °C 34875.8 hPa Calm   8 km/h 98 % 0 mm
06:42 -17.2 °C -17.2 °C 34875.8 hPa Calm     98 % 0 mm
06:47 -17.3 °C -17.2 °C 34841.9 hPa Calm     98 % 0 mm
06:52 -17.4 °C -17.2 °C 34841.9 hPa Calm     98 % 0 mm
06:57 -17.5 °C -17.2 °C 34841.9 hPa Calm     98 % 0 mm
07:02 -17.6 °C -17.2 °C 34841.9 hPa Calm     98 % 0 mm
07:07 -17.6 °C -17.2 °C 34841.9 hPa Calm     98 % 0 mm
07:12 -17.4 °C -17.2 °C 34841.9 hPa West 6.9 km/h 8 km/h 98 % 0 mm
07:17 -17.4 °C -17.2 °C 34841.9 hPa Calm   8 km/h 98 % 0 mm
07:22 -17.4 °C -17.2 °C 34841.9 hPa Calm   6.9 km/h 98 % 0 mm
07:27 -17.6 °C -17.2 °C 34841.9 hPa Calm     98 % 0 mm
07:32 -17.6 °C -17.2 °C 34841.9 hPa Calm     98 % 0 mm
07:37 -17.6 °C -17.2 °C 34841.9 hPa Calm     98 % 0 mm
07:42 -17.7 °C -17.8 °C 34841.9 hPa Calm     98 % 0 mm
07:47 -17.7 °C -17.8 °C 34841.9 hPa Calm     98 % 0 mm
07:52 -17.7 °C -17.8 °C 34841.9 hPa Calm     98 % 0 mm
07:57 -17.7 °C -17.8 °C 34841.9 hPa Calm     98 % 0 mm
08:02 -17.7 °C -17.8 °C 34875.8 hPa Calm   8.9 km/h 98 % 0 mm
08:07 -17.7 °C -17.8 °C 34875.8 hPa Calm   8.9 km/h 98 % 0 mm
08:12 -17.7 °C -17.8 °C 34875.8 hPa Calm   2.3 km/h 98 % 0 mm
08:17 -17.7 °C -17.8 °C 34841.9 hPa Calm     98 % 0 mm
08:22 -17.7 °C -17.8 °C 34841.9 hPa Calm     98 % 0 mm
08:27 -17.7 °C -17.8 °C 34841.9 hPa Calm     98 % 0 mm
08:32 -17.6 °C -17.2 °C 34841.9 hPa Calm     98 % 0 mm
08:37 -17.6 °C -17.2 °C 34841.9 hPa Calm     98 % 0 mm
08:42 -17.6 °C -17.2 °C 34841.9 hPa Calm   5.1 km/h 98 % 0 mm
08:47 -17.5 °C -17.2 °C 34875.8 hPa Calm   5.1 km/h 98 % 0 mm
08:52 -17.4 °C -17.2 °C 34875.8 hPa Calm   5.1 km/h 98 % 0 mm
08:57 -17.3 °C -17.2 °C 34875.8 hPa Calm   5.1 km/h 98 % 0 mm
09:03 -17.3 °C -17.2 °C 34875.8 hPa Calm     98 % 0 mm
09:08 -17.3 °C -17.2 °C 34875.8 hPa Calm     98 % 0 mm
09:13 -17.3 °C -17.2 °C 34875.8 hPa Calm   2.3 km/h 98 % 0 mm
09:18 -17.2 °C -17.2 °C 34875.8 hPa Calm   5.6 km/h 98 % 0 mm
09:23 -17.1 °C -17.2 °C 34875.8 hPa Calm   5.6 km/h 98 % 0 mm
09:28 -17.1 °C -17.2 °C 34875.8 hPa Calm     98 % 0 mm
09:33 -17.1 °C -17.2 °C 34841.9 hPa Calm     98 % 0 mm
09:38 -17 °C -17.2 °C 34841.9 hPa Calm   2.3 km/h 98 % 0 mm
09:43 -16.9 °C -16.7 °C 34841.9 hPa Calm   2.3 km/h 98 % 0 mm
09:48 -16.8 °C -16.7 °C 34875.8 hPa Calm   2.3 km/h 98 % 0 mm
09:53 -16.7 °C -16.7 °C 34875.8 hPa Calm     98 % 0 mm
09:58 -16.6 °C -16.7 °C 34875.8 hPa Calm   4.2 km/h 98 % 0 mm
10:03 -16.5 °C -16.1 °C 34841.9 hPa Calm   4.2 km/h 98 % 0 mm
10:08 -16.3 °C -16.1 °C 34841.9 hPa Calm     98 % 0 mm
10:13 -16.2 °C -16.1 °C 34841.9 hPa Calm   11.1 km/h 98 % 0 mm
10:18 -16.2 °C -16.1 °C 34841.9 hPa Calm   11.1 km/h 98 % 0 mm
10:23 -16.1 °C -16.1 °C 34841.9 hPa Calm   2.3 km/h 98 % 0 mm
10:28 -15.9 °C -16.1 °C 34841.9 hPa Calm     98 % 0 mm
10:33 -15.8 °C -15.6 °C 34841.9 hPa Calm     98 % 0 mm
10:38 -15.7 °C -15.6 °C 34841.9 hPa Calm     98 % 0 mm
10:44 -15.6 °C -15.6 °C 34841.9 hPa Calm     98 % 0 mm
10:49 -15.5 °C -15.6 °C 34841.9 hPa Calm   6.9 km/h 98 % 7.62 mm
10:54 -15.4 °C -15.6 °C 34841.9 hPa Calm   6.9 km/h 98 % 7.62 mm
10:59 -15.2 °C -15 °C 34841.9 hPa Calm     98 % 7.62 mm
11:04 -15.1 °C -15 °C 34841.9 hPa Calm     98 % 7.62 mm
11:09 -14.8 °C -14.4 °C 34841.9 hPa Calm     98 % 7.62 mm
11:14 -14.8 °C -14.4 °C 34841.9 hPa Calm   2.9 km/h 98 % 7.62 mm
11:19 -14.6 °C -14.4 °C 34841.9 hPa Calm   2.9 km/h 98 % 7.62 mm
11:24 -14.4 °C -14.4 °C 34841.9 hPa Calm   2.9 km/h 98 % 7.62 mm
11:29 -14.2 °C -13.9 °C 34841.9 hPa Calm   2.9 km/h 98 % 7.62 mm
11:34 -13.9 °C -13.9 °C 34841.9 hPa Calm     98 % 7.62 mm
11:39 -13.8 °C -13.9 °C 34841.9 hPa Calm     98 % 7.62 mm
11:44 -13.7 °C -13.9 °C 34841.9 hPa Calm     98 % 7.62 mm
11:49 -13.6 °C -13.3 °C 34841.9 hPa Calm   2.3 km/h 98 % 0 mm
11:54 -13.3 °C -13.3 °C 34841.9 hPa Calm   2.3 km/h 98 % 0 mm
11:59 -13.2 °C -12.8 °C 34841.9 hPa Calm     98 % 0 mm
12:04 -13.1 °C -12.8 °C 34841.9 hPa Calm     98 % 0 mm
12:09 -12.9 °C -12.8 °C 34841.9 hPa Calm   2.3 km/h 98 % 0 mm
12:10 -12.9 °C -12.8 °C 34841.9 hPa Calm   2.3 km/h 98 % 0 mm
12:15 -12.8 °C -12.8 °C 34841.9 hPa Calm   2.3 km/h 98 % 0 mm
12:20 -12.7 °C -12.8 °C 34841.9 hPa Calm     98 % 0 mm
12:26 -12.6 °C -12.8 °C 34841.9 hPa Calm     98 % 0 mm
12:31 -12.4 °C -12.2 °C 34841.9 hPa Calm   2.3 km/h 98 % 0 mm
12:36 -12.3 °C -12.2 °C 34841.9 hPa SW 6.4 km/h 12.7 km/h 98 % 0 mm
12:41 -12.3 °C -12.2 °C 34841.9 hPa Calm   12.7 km/h 98 % 0 mm
12:46 -12.2 °C -12.2 °C 34841.9 hPa Calm   11.1 km/h 98 % 0 mm
12:51 -12.1 °C -12.2 °C 34841.9 hPa Calm   11.6 km/h 97 % 0 mm
12:56 -12 °C -12.2 °C 34841.9 hPa Calm   11.6 km/h 96 % 0 mm
13:01 -11.9 °C -12.2 °C 34808.1 hPa Calm   3.4 km/h 95 % 0 mm
13:06 -11.8 °C -12.2 °C 34808.1 hPa SSW 7.6 km/h 10.3 km/h 94 % 0 mm
13:11 -11.7 °C -12.2 °C 34808.1 hPa SSW 8 km/h 10.3 km/h 93 % 0 mm
13:16 -11.7 °C -12.2 °C 34808.1 hPa SSE 15 km/h 17.9 km/h 92 % 0 mm
13:21 -11.8 °C -12.8 °C 34808.1 hPa Calm   17.9 km/h 89 % 0 mm
13:26 -11.8 °C -12.8 °C 34808.1 hPa Calm   15.6 km/h 87 % 0 mm
13:31 -11.7 °C -12.8 °C 34774.2 hPa SSW 2.3 km/h 15.6 km/h 85 % 0 mm
13:36 -11.8 °C -12.8 °C 34774.2 hPa Calm   12.7 km/h 85 % 0 mm
13:41 -11.9 °C -13.3 °C 34774.2 hPa Calm   6.4 km/h 84 % 0 mm
13:46 -11.9 °C -13.3 °C 34774.2 hPa Calm   7.6 km/h 84 % 0 mm
13:51 -11.7 °C -12.8 °C 34774.2 hPa Calm   11.1 km/h 84 % 0 mm
13:56 -11.6 °C -12.8 °C 34774.2 hPa Calm   11.1 km/h 84 % 0 mm
14:01 -11.5 °C -12.8 °C 34740.4 hPa SSW 10.3 km/h 12.7 km/h 83 % 0 mm
14:06 -11.7 °C -13.3 °C 34740.4 hPa Calm   12.7 km/h 82 % 0 mm
14:11 -11.7 °C -13.3 °C 34740.4 hPa Calm   9.3 km/h 80 % 0 mm
14:16 -11.9 °C -13.9 °C 34774.2 hPa SSW 5.1 km/h 14 km/h 78 % 0 mm
14:21 -11.9 °C -13.9 °C 34774.2 hPa Calm   14 km/h 79 % 0 mm
14:26 -12 °C -13.9 °C 34774.2 hPa Calm   9.8 km/h 79 % 0 mm
14:31 -12.1 °C -13.9 °C 34740.4 hPa South 2.3 km/h 14.5 km/h 79 % 0 mm
14:36 -12.2 °C -14.4 °C 34740.4 hPa Calm   14.5 km/h 78 % 0 mm
14:41 -12.2 °C -14.4 °C 34740.4 hPa Calm   16.3 km/h 78 % 0 mm
14:46 -12.3 °C -14.4 °C 34740.4 hPa Calm   16.3 km/h 78 % 0 mm
14:51 -12.3 °C -14.4 °C 34740.4 hPa Calm   9.3 km/h 78 % 0 mm
14:56 -12.3 °C -14.4 °C 34740.4 hPa Calm   9.8 km/h 78 % 0 mm
15:01 -12.3 °C -14.4 °C 34740.4 hPa Calm   12.7 km/h 78 % 0 mm
15:06 -12.4 °C -14.4 °C 34740.4 hPa South 6.9 km/h 12.7 km/h 79 % 0 mm
15:12 -12.4 °C -14.4 °C 34740.4 hPa SSE 9.3 km/h 15 km/h 78 % 0 mm
15:17 -12.4 °C -14.4 °C 34740.4 hPa SSW 11.1 km/h 15 km/h 79 % 0 mm
15:22 -12.4 °C -14.4 °C 34740.4 hPa Calm   15 km/h 79 % 0 mm
15:27 -12.5 °C -14.4 °C 34740.4 hPa South 9.3 km/h 15 km/h 79 % 0 mm
15:32 -12.6 °C -14.4 °C 34740.4 hPa SSW 8 km/h 9.3 km/h 80 % 0 mm
15:37 -12.6 °C -14.4 °C 34740.4 hPa Calm   9.3 km/h 80 % 0 mm
15:42 -12.6 °C -14.4 °C 34740.4 hPa SSE 12.2 km/h 12.2 km/h 81 % 0 mm
15:47 -12.1 °C -13.3 °C 34669.3 hPa Calm   15.6 km/h 82 % 0 mm
15:52 -12.1 °C -13.9 °C 34669.3 hPa Calm   15.6 km/h 81 % 0 mm
15:57 -12.1 °C -13.9 °C 34669.3 hPa SSE 2.3 km/h 15 km/h 80 % 0 mm
16:02 -12.1 °C -13.9 °C 34703.1 hPa Calm   8.9 km/h 80 % 0 mm
16:07 -12.2 °C -13.9 °C 34703.1 hPa Calm   6.4 km/h 79 % 0 mm
16:12 -12.3 °C -13.9 °C 34703.1 hPa Calm     80 % 0 mm
16:17 -12.3 °C -13.9 °C 34703.1 hPa Calm     80 % 0 mm
16:22 -12.4 °C -13.9 °C 34703.1 hPa Calm     81 % 0 mm
16:27 -12.4 °C -13.9 °C 34703.1 hPa Calm   3.4 km/h 81 % 0 mm
16:32 -12.6 °C -14.4 °C 34669.3 hPa Calm   4.2 km/h 81 % 0 mm
16:37 -12.6 °C -14.4 °C 34669.3 hPa Calm   4.2 km/h 81 % 0 mm
16:42 -12.6 °C -13.9 °C 34669.3 hPa Calm     82 % 0 mm
16:47 -12.6 °C -13.9 °C 34703.1 hPa Calm     82 % 0 mm
16:52 -12.7 °C -13.9 °C 34703.1 hPa Calm     83 % 0 mm
16:57 -12.7 °C -13.9 °C 34703.1 hPa Calm     83 % 0 mm
17:02 -12.7 °C -14.4 °C 34703.1 hPa Calm   3.4 km/h 83 % 0 mm
17:07 -12.8 °C -14.4 °C 34703.1 hPa Calm   3.4 km/h 83 % 0 mm
17:12 -12.8 °C -13.9 °C 34703.1 hPa Calm   2.3 km/h 84 % 0 mm
17:17 -12.8 °C -13.9 °C 34669.3 hPa Calm   5.6 km/h 84 % 0 mm
17:22 -12.9 °C -13.9 °C 34669.3 hPa Calm   5.6 km/h 84 % 0 mm
17:27 -12.9 °C -13.9 °C 34669.3 hPa Calm     85 % 0 mm
17:32 -13 °C -13.9 °C 34703.1 hPa Calm     85 % 0 mm
17:37 -13 °C -13.9 °C 34703.1 hPa Calm     85 % 0 mm
17:42 -13.1 °C -13.9 °C 34703.1 hPa Calm     85 % 0 mm
17:47 -13.1 °C -13.9 °C 34669.3 hPa Calm     86 % 0 mm
17:53 -13.1 °C -14.4 °C 34669.3 hPa Calm     86 % 0 mm
17:58 -13.2 °C -14.4 °C 34669.3 hPa Calm     86 % 0 mm
18:03 -13.2 °C -14.4 °C 34635.4 hPa Calm   2.3 km/h 86 % 0 mm
18:08 -13.2 °C -13.9 °C 34635.4 hPa Calm   2.3 km/h 87 % 0 mm
18:13 -13.2 °C -13.9 °C 34635.4 hPa Calm   9.8 km/h 87 % 0 mm
18:18 -13.2 °C -13.9 °C 34635.4 hPa Calm   11.1 km/h 87 % 0 mm
18:23 -13.2 °C -13.9 °C 34635.4 hPa Calm   11.1 km/h 88 % 0 mm
18:28 -13.2 °C -13.9 °C 34635.4 hPa Calm   8 km/h 88 % 0 mm
18:33 -13.2 °C -13.9 °C 34635.4 hPa Calm   11.1 km/h 88 % 0 mm
18:38 -13.2 °C -13.9 °C 34635.4 hPa Calm   11.1 km/h 89 % 0 mm
18:43 -13.2 °C -13.9 °C 34635.4 hPa South 3.4 km/h 7.6 km/h 89 % 0 mm
18:48 -13.3 °C -13.9 °C 34635.4 hPa Calm   7.6 km/h 89 % 0 mm
18:53 -13.4 °C -14.4 °C 34635.4 hPa Calm   6.4 km/h 90 % 0 mm
18:58 -13.5 °C -14.4 °C 34635.4 hPa Calm   11.1 km/h 90 % 0 mm
19:03 -13.6 °C -14.4 °C 34601.5 hPa Calm   11.1 km/h 91 % 0 mm
19:08 -13.6 °C -14.4 °C 34601.5 hPa South 11.1 km/h 12.2 km/h 91 % 0 mm
19:13 -13.7 °C -14.4 °C 34601.5 hPa Calm   12.2 km/h 92 % 0 mm
19:18 -13.7 °C -14.4 °C 34601.5 hPa Calm   11.1 km/h 92 % 0 mm
19:23 -13.8 °C -14.4 °C 34601.5 hPa South 8.9 km/h 12.7 km/h 93 % 0 mm
19:28 -13.8 °C -14.4 °C 34601.5 hPa Calm   12.7 km/h 93 % 0 mm
19:33 -13.8 °C -14.4 °C 34601.5 hPa Calm   12.2 km/h 94 % 0 mm
19:38 -13.8 °C -14.4 °C 34601.5 hPa Calm   12.2 km/h 94 % 0 mm
19:44 -13.9 °C -14.4 °C 34601.5 hPa Calm   11.6 km/h 95 % 0 mm
19:49 -13.9 °C -14.4 °C 34601.5 hPa South 8 km/h 9.8 km/h 95 % 0 mm
19:54 -13.9 °C -13.9 °C 34601.5 hPa Calm   9.8 km/h 96 % 0 mm
19:59 -13.9 °C -13.9 °C 34601.5 hPa SW 8 km/h 12.7 km/h 96 % 0 mm
20:04 -13.8 °C -13.9 °C 34601.5 hPa SSW 8 km/h 12.7 km/h 96 % 0 mm
20:09 -13.8 °C -13.9 °C 34601.5 hPa SSW 5.1 km/h 14 km/h 97 % 0 mm
20:14 -13.7 °C -13.9 °C 34601.5 hPa Calm   15.6 km/h 97 % 0 mm
20:19 -13.7 °C -13.9 °C 34601.5 hPa Calm   15.6 km/h 98 % 0 mm
20:24 -13.6 °C -13.3 °C 34601.5 hPa SSW 10.3 km/h 12.7 km/h 98 % 0 mm
20:29 -13.6 °C -13.3 °C 34601.5 hPa WSW 11.1 km/h 14 km/h 98 % 0 mm
20:34 -13.5 °C -13.3 °C 34601.5 hPa SSW 9.3 km/h 14 km/h 98 % 0 mm
20:39 -13.4 °C -13.3 °C 34601.5 hPa SW 9.8 km/h 15 km/h 98 % 0 mm
20:44 -13.4 °C -13.3 °C 34567.7 hPa SW 9.3 km/h 15 km/h 98 % 0 mm
20:49 -13.4 °C -13.3 °C 34567.7 hPa SSW 6.9 km/h 14.5 km/h 98 % 0 mm
20:54 -13.4 °C -13.3 °C 34567.7 hPa SW 12.7 km/h 16.9 km/h 98 % 0 mm
20:59 -13.3 °C -13.3 °C 34567.7 hPa SSW 14 km/h 16.9 km/h 98 % 0 mm
21:04 -13.3 °C -13.3 °C 34567.7 hPa SW 14.5 km/h 20.3 km/h 98 % 0 mm
21:09 -13.3 °C -13.3 °C 34567.7 hPa SW 11.1 km/h 20.3 km/h 98 % 0 mm
21:14 -13.2 °C -13.3 °C 34567.7 hPa WSW 14.5 km/h 18.7 km/h 98 % 0 mm
21:19 -13.2 °C -13.3 °C 34567.7 hPa WSW 15 km/h 20.9 km/h 98 % 0 mm
21:24 -13.2 °C -12.8 °C 34567.7 hPa SSW 14 km/h 20.9 km/h 98 % 0 mm
21:29 -13.2 °C -12.8 °C 34567.7 hPa SW 9.8 km/h 20.9 km/h 98 % 0 mm
21:34 -13.2 °C -12.8 °C 34567.7 hPa SSW 16.3 km/h 20.9 km/h 98 % 0 mm
21:39 -13.2 °C -12.8 °C 34567.7 hPa Calm   20.3 km/h 98 % 0 mm
21:44 -13.2 °C -12.8 °C 34567.7 hPa SW 12.7 km/h 19.2 km/h 98 % 0 mm
21:49 -13.2 °C -12.8 °C 34567.7 hPa SW 12.7 km/h 19.6 km/h 98 % 0 mm
21:54 -13.2 °C -12.8 °C 34567.7 hPa Calm   19.6 km/h 98 % 0 mm
21:59 -13.2 °C -12.8 °C 34567.7 hPa SSW 12.7 km/h 15 km/h 98 % 0 mm
22:04 -13.2 °C -12.8 °C 34567.7 hPa Calm   14.5 km/h 98 % 0 mm
22:09 -13.2 °C -12.8 °C 34567.7 hPa SW 11.1 km/h 14 km/h 98 % 0 mm
22:15 -13.2 °C -12.8 °C 34496.6 hPa SSW 16.3 km/h 17.4 km/h 98 % 0 mm
22:20 -13.2 °C -12.8 °C 34496.6 hPa SSW 14 km/h 19.2 km/h 98 % 0 mm
22:25 -13.2 °C -12.8 °C 34496.6 hPa SSW 14 km/h 19.2 km/h 98 % 0 mm
22:30 -13.2 °C -12.8 °C 34496.6 hPa SW 14.5 km/h 17.9 km/h 98 % 0 mm
22:35 -13.2 °C -12.8 °C 34496.6 hPa SSW 14.5 km/h 19.6 km/h 98 % 0 mm
22:40 -13.1 °C -12.8 °C 34496.6 hPa SSW 10.3 km/h 19.6 km/h 98 % 0 mm
22:45 -13.1 °C -12.8 °C 34476.3 hPa SW 14.5 km/h 19.6 km/h 98 % 0 mm
22:50 -13.1 °C -12.8 °C 34476.3 hPa South 3.4 km/h 19.6 km/h 98 % 0 mm
22:55 -13.1 °C -12.8 °C 34476.3 hPa Calm   15.6 km/h 98 % 0 mm
23:00 -13.1 °C -12.8 °C 34496.6 hPa SSW 11.1 km/h 16.3 km/h 98 % 0 mm
23:05 -13.1 °C -12.8 °C 34496.6 hPa Calm   20.9 km/h 98 % 0 mm
23:10 -13.1 °C -12.8 °C 34496.6 hPa SSW 10.3 km/h 20.9 km/h 98 % 0 mm
23:15 -13.1 °C -12.8 °C 34496.6 hPa South 15.6 km/h 20.9 km/h 98 % 0 mm
23:20 -13.1 °C -12.8 °C 34496.6 hPa SW 9.8 km/h 20.9 km/h 98 % 0 mm
23:25 -13 °C -12.8 °C 34496.6 hPa SSW 14 km/h 20.3 km/h 98 % 0 mm
23:30 -12.9 °C -12.8 °C 34496.6 hPa SSW 16.3 km/h 17.4 km/h 98 % 0 mm
23:35 -12.9 °C -12.8 °C 34496.6 hPa SSW 15.6 km/h 16.3 km/h 98 % 0 mm
23:40 -12.9 °C -12.8 °C 34496.6 hPa SW 17.4 km/h 22.5 km/h 98 % 0 mm
23:45 -12.8 °C -12.8 °C 34476.3 hPa SW 16.3 km/h 23.8 km/h 98 % 0 mm
23:50 -12.7 °C -12.8 °C 34476.3 hPa SSW 18.7 km/h 23.8 km/h 98 % 0 mm
23:55 -12.7 °C -12.8 °C 34476.3 hPa SW 20.3 km/h 24.3 km/h 98 % 0 mm
Le Gheer Warneton
Courtoisie de Weather Underground - 2.25 mb

Mise a jour : 22/02/2018 04:18:11
Généré par Cumulus 1.9.4 (1099)